createdAt,value
2022-10-29T00:03:54.164Z,15.63
2022-10-29T00:08:57.020Z,14.88
2022-10-29T00:14:01.534Z,14.97
2022-10-29T00:19:04.914Z,14.45
2022-10-29T00:24:10.202Z,13.80
2022-10-29T00:29:12.998Z,12.40
2022-10-29T00:34:15.851Z,12.95
2022-10-29T00:39:18.717Z,12.63
2022-10-29T00:44:35.985Z,12.68
2022-10-29T00:49:41.240Z,11.85
2022-10-29T00:54:47.652Z,11.33
2022-10-29T00:59:51.029Z,11.65
2022-10-29T01:04:54.582Z,11.83
2022-10-29T01:09:57.440Z,12.05
2022-10-29T01:15:06.177Z,11.88
2022-10-29T01:20:31.389Z,11.23
2022-10-29T01:26:15.830Z,12.23
2022-10-29T01:31:56.348Z,11.93
2022-10-29T01:37:44.878Z,12.68
2022-10-29T01:43:02.869Z,10.20
2022-10-29T01:48:10.018Z,11.77
2022-10-29T01:53:12.941Z,12.57
2022-10-29T02:03:49.402Z,11.40
2022-10-29T02:09:02.532Z,11.43
2022-10-29T02:14:12.151Z,10.23
2022-10-29T02:19:14.918Z,10.20
2022-10-29T02:24:17.577Z,10.27
2022-10-29T02:29:20.409Z,10.50
2022-10-29T02:34:23.338Z,10.52
2022-10-29T02:39:26.134Z,10.10
2022-10-29T02:44:28.943Z,10.57
2022-10-29T02:49:31.806Z,10.50
2022-10-29T02:54:34.528Z,10.00
2022-10-29T02:59:37.229Z,8.82
2022-10-29T03:04:39.979Z,9.87
2022-10-29T03:09:42.649Z,9.45
2022-10-29T03:14:45.333Z,10.00
2022-10-29T03:19:48.119Z,10.50
2022-10-29T03:24:50.764Z,9.38
2022-10-29T03:29:53.567Z,8.17
2022-10-29T03:34:59.827Z,9.88
2022-10-29T03:40:02.870Z,8.80
2022-10-29T03:45:06.209Z,10.02
2022-10-29T03:50:09.531Z,8.80
2022-10-29T03:55:12.254Z,10.03
2022-10-29T04:00:15.972Z,9.98
2022-10-29T04:05:18.712Z,10.37
2022-10-29T04:10:21.693Z,10.27
2022-10-29T04:15:24.406Z,10.38
2022-10-29T04:20:43.345Z,10.63
2022-10-29T04:31:22.878Z,10.10
2022-10-29T04:36:25.788Z,9.07
2022-10-29T04:41:28.538Z,9.57
2022-10-29T04:46:31.217Z,10.03
2022-10-29T04:51:34.057Z,9.75
2022-10-29T04:56:36.866Z,9.87
2022-10-29T05:01:39.825Z,9.38
2022-10-29T05:06:42.608Z,8.50
2022-10-29T05:11:45.756Z,8.10
2022-10-29T05:16:48.456Z,9.10
2022-10-29T05:21:51.118Z,7.70
2022-10-29T05:26:53.778Z,8.23
2022-10-29T05:31:56.552Z,8.27
2022-10-29T05:36:59.452Z,7.97
2022-10-29T05:42:02.298Z,7.85
2022-10-29T05:47:07.159Z,6.87
2022-10-29T05:52:09.923Z,6.45
2022-10-29T05:57:12.666Z,6.68
2022-10-29T06:02:15.773Z,6.07
2022-10-29T06:07:19.068Z,7.53
2022-10-29T06:12:22.366Z,8.10
2022-10-29T06:17:25.442Z,7.70
2022-10-29T06:22:28.196Z,7.68
2022-10-29T06:27:31.221Z,7.50
2022-10-29T06:32:34.774Z,14.20
2022-10-29T06:37:40.468Z,12.27
2022-10-29T06:42:44.859Z,8.30
2022-10-29T06:47:47.647Z,7.72
2022-10-29T06:53:00.554Z,7.63
2022-10-29T06:58:11.389Z,7.93
2022-10-29T07:03:15.958Z,6.57
2022-10-29T07:08:18.728Z,6.75
2022-10-29T07:13:21.839Z,6.32
2022-10-29T07:18:24.638Z,6.00
2022-10-29T07:23:27.377Z,6.55
2022-10-29T07:28:30.287Z,5.73
2022-10-29T07:33:33.248Z,6.38
2022-10-29T07:38:36.180Z,6.43
2022-10-29T07:43:39.228Z,5.63
2022-10-29T07:48:42.193Z,5.65
2022-10-29T07:53:44.960Z,6.03
2022-10-29T07:58:47.804Z,5.63
2022-10-29T08:03:51.479Z,5.63
2022-10-29T08:08:56.316Z,5.37
2022-10-29T08:13:59.649Z,6.15
2022-10-29T08:19:02.460Z,5.93
2022-10-29T08:24:05.699Z,6.07
2022-10-29T08:29:08.823Z,4.25
2022-10-29T08:34:11.624Z,5.97
2022-10-29T08:39:14.572Z,6.28
2022-10-29T08:44:34.828Z,6.07
2022-10-29T08:49:48.330Z,5.93
2022-10-29T08:55:06.421Z,6.20
2022-10-29T09:00:17.194Z,5.70
2022-10-29T09:05:25.295Z,4.95
2022-10-29T09:10:36.676Z,5.33
2022-10-29T09:16:23.394Z,4.70
2022-10-29T09:21:28.866Z,5.07
2022-10-29T09:26:58.987Z,4.70
2022-10-29T09:32:16.404Z,4.97
2022-10-29T09:37:22.917Z,4.70
2022-10-29T09:42:36.240Z,4.90
2022-10-29T09:47:47.122Z,4.57
2022-10-29T09:52:50.434Z,4.13
2022-10-29T09:57:55.279Z,4.15
2022-10-29T10:03:02.203Z,4.27
2022-10-29T10:08:09.616Z,4.72
2022-10-29T10:13:17.185Z,4.70
2022-10-29T10:18:39.576Z,4.57
2022-10-29T10:23:49.495Z,4.47
2022-10-29T10:29:13.952Z,4.30
2022-10-29T10:34:47.033Z,4.03
2022-10-29T10:39:57.813Z,4.00
2022-10-29T10:45:05.793Z,4.37
2022-10-29T10:50:17.319Z,3.53
2022-10-29T10:55:42.662Z,3.90
2022-10-29T11:00:56.375Z,3.78
2022-10-29T11:06:02.109Z,3.30
2022-10-29T11:11:16.808Z,3.20
2022-10-29T11:16:32.012Z,3.10
2022-10-29T11:21:52.540Z,3.07
2022-10-29T11:27:04.903Z,3.17
2022-10-29T11:32:19.805Z,3.78
2022-10-29T11:37:32.333Z,3.87
2022-10-29T11:42:36.589Z,3.80
2022-10-29T11:48:07.062Z,3.33
2022-10-29T11:53:40.763Z,3.78
2022-10-29T11:58:57.259Z,3.58
2022-10-29T12:04:24.475Z,3.50
2022-10-29T12:09:42.793Z,3.88
2022-10-29T12:15:15.999Z,3.90
2022-10-29T12:20:34.780Z,4.10
2022-10-29T12:25:49.731Z,3.60
2022-10-29T12:30:58.434Z,4.30
2022-10-29T12:36:15.477Z,4.32
2022-10-29T12:41:36.695Z,3.80
2022-10-29T12:47:03.433Z,4.20
2022-10-29T12:52:15.761Z,3.50
2022-10-29T12:57:18.791Z,3.97
2022-10-29T13:02:30.503Z,3.75
2022-10-29T13:07:38.913Z,4.30
2022-10-29T13:13:01.644Z,3.88
2022-10-29T13:18:40.435Z,4.65
2022-10-29T13:24:03.833Z,4.20
2022-10-29T13:29:08.074Z,4.75
2022-10-29T13:34:10.899Z,4.90
2022-10-29T13:39:19.080Z,4.10
2022-10-29T13:44:27.419Z,4.25
2022-10-29T13:49:34.465Z,4.00
2022-10-29T13:54:42.517Z,4.32
2022-10-29T14:00:04.004Z,4.30
2022-10-29T14:05:34.266Z,4.20
2022-10-29T14:10:43.559Z,4.50
2022-10-29T14:16:03.007Z,4.50
2022-10-29T14:21:13.875Z,4.85
2022-10-29T14:26:17.572Z,5.80
2022-10-29T14:31:25.533Z,4.80
2022-10-29T14:36:34.479Z,4.60
2022-10-29T14:41:39.501Z,4.53
2022-10-29T14:46:44.613Z,4.72
2022-10-29T14:52:03.827Z,5.00
2022-10-29T14:57:16.915Z,4.60
2022-10-29T15:07:43.213Z,4.93
2022-10-29T15:12:47.318Z,5.38
2022-10-29T15:18:16.364Z,5.30
2022-10-29T15:23:41.572Z,5.65
2022-10-29T15:28:46.481Z,5.47
2022-10-29T15:33:54.105Z,5.83
2022-10-29T15:39:18.293Z,5.22
2022-10-29T15:44:29.184Z,6.10
2022-10-29T15:49:32.759Z,6.38
2022-10-29T15:54:35.724Z,7.20
2022-10-29T15:59:40.335Z,7.17
2022-10-29T16:04:43.161Z,7.65
2022-10-29T16:09:56.903Z,6.87
2022-10-29T16:14:59.710Z,8.35
2022-10-29T16:20:02.507Z,8.30
2022-10-29T16:25:05.689Z,8.40
2022-10-29T16:30:09.119Z,9.00
2022-10-29T16:35:19.272Z,8.73
2022-10-29T16:40:24.451Z,8.45
2022-10-29T16:45:30.133Z,8.68
2022-10-29T16:50:34.875Z,9.07
2022-10-29T16:55:39.888Z,9.55
2022-10-29T17:00:42.990Z,9.27
2022-10-29T17:05:47.762Z,9.23
2022-10-29T17:10:50.800Z,10.07
2022-10-29T17:15:53.645Z,9.40
2022-10-29T17:21:01.438Z,9.02
2022-10-29T17:26:04.290Z,9.87
2022-10-29T17:31:08.649Z,10.00
2022-10-29T17:36:15.023Z,10.70
2022-10-29T17:41:18.084Z,10.60
2022-10-29T17:46:21.046Z,11.50
2022-10-29T17:51:24.476Z,11.40
2022-10-29T17:56:27.354Z,11.10
2022-10-29T18:01:30.353Z,10.77
2022-10-29T18:06:33.842Z,11.17
2022-10-29T18:11:36.640Z,11.18
2022-10-29T18:16:39.328Z,12.80
2022-10-29T18:21:42.185Z,11.63
2022-10-29T18:26:49.769Z,11.93
2022-10-29T18:31:52.553Z,12.23
2022-10-29T18:36:55.633Z,13.45
2022-10-29T18:41:59.729Z,13.47
2022-10-29T18:47:02.395Z,13.45
2022-10-29T18:52:05.425Z,11.75
2022-10-29T18:57:08.158Z,11.43
2022-10-29T19:02:12.591Z,12.55
2022-10-29T19:07:15.469Z,11.27
2022-10-29T19:12:18.230Z,12.85
2022-10-29T19:17:21.150Z,12.27
2022-10-29T19:22:23.971Z,12.97
2022-10-29T19:27:26.830Z,14.18
2022-10-29T19:32:29.739Z,13.03
2022-10-29T19:37:32.480Z,13.52
2022-10-29T19:42:35.316Z,13.80
2022-10-29T19:47:38.431Z,13.50
2022-10-29T19:52:41.253Z,14.45
2022-10-29T19:57:44.112Z,12.03
2022-10-29T20:02:46.785Z,12.60
2022-10-29T20:07:49.614Z,12.02
2022-10-29T20:12:52.384Z,12.03
2022-10-29T20:17:55.919Z,11.20
2022-10-29T20:23:00.645Z,11.73
2022-10-29T20:28:04.223Z,11.77
2022-10-29T20:33:07.724Z,11.38
2022-10-29T20:38:10.658Z,12.50
2022-10-29T20:43:13.571Z,12.20
2022-10-29T20:48:16.570Z,12.77
2022-10-29T20:53:19.401Z,12.40
2022-10-29T20:58:22.865Z,12.07
2022-10-29T21:03:25.631Z,12.73
2022-10-29T21:08:29.495Z,13.85
2022-10-29T21:13:32.732Z,12.47
2022-10-29T21:18:40.384Z,13.07
2022-10-29T21:23:43.728Z,12.50
2022-10-29T21:28:47.505Z,12.20
2022-10-29T21:33:54.587Z,12.23
2022-10-29T21:38:57.380Z,12.60
2022-10-29T21:44:00.104Z,14.85
2022-10-29T21:49:03.059Z,14.13
2022-10-29T21:54:05.805Z,10.77
2022-10-29T21:59:08.645Z,13.75
2022-10-29T22:04:11.411Z,12.37
2022-10-29T22:09:14.239Z,10.90
2022-10-29T22:14:17.088Z,11.07
2022-10-29T22:19:19.768Z,12.27
2022-10-29T22:24:22.487Z,11.88
2022-10-29T22:29:25.107Z,12.27
2022-10-29T22:34:27.767Z,11.70
2022-10-29T22:39:30.408Z,11.10
2022-10-29T22:44:33.106Z,11.33
2022-10-29T22:49:36.120Z,12.15
2022-10-29T22:54:38.725Z,13.10
2022-10-29T22:59:41.644Z,12.25
2022-10-29T23:04:44.417Z,12.75
2022-10-29T23:09:47.216Z,12.33
2022-10-29T23:14:49.884Z,12.38
2022-10-29T23:19:56.384Z,12.60
2022-10-29T23:24:58.970Z,13.50
2022-10-29T23:30:01.673Z,12.88
2022-10-29T23:35:04.749Z,13.30
2022-10-29T23:40:08.780Z,13.05
2022-10-29T23:45:14.131Z,12.97
2022-10-29T23:50:17.109Z,13.18
2022-10-29T23:55:19.916Z,14.73
